Time,TemperatureF,DewpointF,PressureIn,WindDirection,WindDirectionDegrees,WindSpeedMPH,WindSpeedGustMPH,Humidity,HourlyPrecipIn,Conditions,Clouds,dailyrainin,SoftwareType,DateUTC
2013-04-17 00:42:00,21.0,-22.0,-100.00,NNE,25,1.0,-999.0,12,0.00,,,-99.99,,2013-04-17 08:42:00,
2013-04-17 00:52:00,21.0,-22.0,-100.00,NNE,25,1.0,-999.0,12,0.00,,,-99.99,,2013-04-17 08:52:00,
2013-04-17 01:42:00,12.0,-29.0,-100.00,WSW,245,0.0,-999.0,12,0.00,,,-99.99,,2013-04-17 09:42:00,
2013-04-17 01:52:00,12.0,-29.0,-100.00,WSW,245,0.0,-999.0,12,0.00,,,-99.99,,2013-04-17 09:52:00,
2013-04-17 02:43:00,6.0,-34.0,-100.00,North,349,0.0,-999.0,12,0.00,,,-99.99,,2013-04-17 10:43:00,
2013-04-17 02:52:00,6.0,-34.0,-100.00,North,349,0.0,-999.0,12,0.00,,,-99.99,,2013-04-17 10:52:00,
2013-04-17 03:32:00,1.0,-38.0,-100.00,NE,49,0.0,-999.0,12,-99.99,,,-99.99,,2013-04-17 11:32:00,
2013-04-17 04:42:00,-2.0,-41.0,-100.00,ENE,57,0.0,-999.0,12,-99.99,,,-99.99,,2013-04-17 12:42:00,
2013-04-17 04:52:00,-2.0,-41.0,-100.00,ENE,57,0.0,-999.0,12,-99.99,,,-99.99,,2013-04-17 12:52:00,
2013-04-17 06:43:00,-3.0,-42.0,-100.00,NNE,22,1.0,-999.0,12,-99.99,,,-99.99,,2013-04-17 14:43:00,
2013-04-17 07:33:00,-1.0,-40.0,-100.00,West,269,0.0,-999.0,12,-99.99,,,-99.99,,2013-04-17 15:33:00,
2013-04-17 08:32:00,6.0,-34.0,-100.00,NW,306,0.0,-999.0,13,-99.99,,,-99.99,,2013-04-17 16:32:00,
2013-04-17 09:33:00,24.0,-18.0,-100.00,SSE,153,0.0,-999.0,14,-99.99,,,-99.99,,2013-04-17 17:33:00,
2013-04-17 10:42:00,28.0,6.0,-100.00,ENE,62,3.0,7.0,39,0.00,,,-99.99,,2013-04-17 18:42:00,
2013-04-17 10:52:00,28.0,6.0,-100.00,ENE,62,3.0,7.0,39,0.00,,,-99.99,,2013-04-17 18:52:00,
2013-04-17 11:02:00,28.0,6.0,-100.00,ENE,62,3.0,7.0,39,0.00,,,-99.99,,2013-04-17 19:02:00,
2013-04-17 11:12:00,28.0,6.0,-100.00,ENE,62,3.0,7.0,39,0.00,,,-99.99,,2013-04-17 19:12:00,
2013-04-17 11:42:00,32.0,9.0,-100.00,NNE,25,4.0,12.0,37,0.00,,,-99.99,,2013-04-17 19:42:00,
2013-04-17 11:52:00,32.0,9.0,-100.00,NNE,25,4.0,12.0,37,0.00,,,-99.99,,2013-04-17 19:52:00,
2013-04-17 12:02:00,32.0,9.0,-100.00,NNE,25,4.0,12.0,37,0.00,,,-99.99,,2013-04-17 20:02:00,
2013-04-17 12:12:00,32.0,9.0,-100.00,NNE,25,4.0,12.0,37,0.00,,,-99.99,,2013-04-17 20:12:00,
2013-04-17 12:33:00,32.0,7.0,-100.00,NNE,27,6.0,17.0,34,0.00,,,-99.99,,2013-04-17 20:33:00,
2013-04-17 12:42:00,32.0,7.0,-100.00,NNE,27,6.0,17.0,34,0.00,,,-99.99,,2013-04-17 20:42:00,
2013-04-17 12:52:00,32.0,7.0,-100.00,NNE,27,6.0,17.0,34,0.00,,,-99.99,,2013-04-17 20:52:00,
2013-04-17 13:02:00,32.0,7.0,-100.00,NNE,27,6.0,17.0,34,0.00,,,-99.99,,2013-04-17 21:02:00,
2013-04-17 13:12:00,32.0,7.0,-100.00,NNE,27,6.0,17.0,34,0.00,,,-99.99,,2013-04-17 21:12:00,
2013-04-17 13:43:00,32.0,6.0,-100.00,NNE,22,8.0,18.0,33,0.00,,,-99.99,,2013-04-17 21:43:00,
2013-04-17 13:53:00,32.0,6.0,-100.00,NNE,22,8.0,18.0,33,0.00,,,-99.99,,2013-04-17 21:53:00,
2013-04-17 14:02:00,32.0,6.0,-100.00,NNE,22,8.0,18.0,33,0.00,,,-99.99,,2013-04-17 22:02:00,
2013-04-17 14:12:00,32.0,6.0,-100.00,NNE,22,8.0,18.0,33,0.00,,,-99.99,,2013-04-17 22:12:00,
2013-04-17 14:43:00,33.0,7.0,-100.00,NE,35,6.0,17.0,33,0.00,,,-99.99,,2013-04-17 22:43:00,
2013-04-17 14:53:00,33.0,7.0,-100.00,NE,35,6.0,17.0,33,0.00,,,-99.99,,2013-04-17 22:53:00,
2013-04-17 15:02:00,33.0,7.0,-100.00,NE,35,6.0,17.0,33,0.00,,,-99.99,,2013-04-17 23:02:00,
2013-04-17 15:12:00,33.0,7.0,-100.00,NE,35,6.0,17.0,33,0.00,,,-99.99,,2013-04-17 23:12:00,
2013-04-17 15:42:00,33.0,6.0,-100.00,NE,49,8.0,16.0,31,0.00,,,0.02,,2013-04-17 23:42:00,
2013-04-17 15:52:00,33.0,6.0,-100.00,NE,49,8.0,16.0,31,0.00,,,0.02,,2013-04-17 23:52:00,
2013-04-17 16:02:00,33.0,6.0,-100.00,NE,49,8.0,16.0,31,0.00,,,0.02,,2013-04-18 00:02:00,
2013-04-17 16:12:00,33.0,6.0,-100.00,NE,49,8.0,16.0,31,0.00,,,0.02,,2013-04-18 00:12:00,
2013-04-17 16:42:00,32.0,6.0,-100.00,NE,46,8.0,20.0,32,0.00,,,0.00,,2013-04-18 00:42:00,
2013-04-17 16:52:00,32.0,6.0,-100.00,NE,46,8.0,20.0,32,0.00,,,0.00,,2013-04-18 00:52:00,
2013-04-17 17:02:00,32.0,6.0,-100.00,NE,46,8.0,20.0,32,0.00,,,0.00,,2013-04-18 01:02:00,
2013-04-17 17:12:00,32.0,6.0,-100.00,NE,46,8.0,20.0,32,0.00,,,0.00,,2013-04-18 01:12:00,
2013-04-17 17:32:00,32.0,6.0,-100.00,NNE,29,8.0,17.0,32,0.00,,,0.00,,2013-04-18 01:32:00,
2013-04-17 17:42:00,32.0,6.0,-100.00,NNE,29,8.0,17.0,32,0.00,,,0.00,,2013-04-18 01:42:00,
2013-04-17 17:52:00,32.0,6.0,-100.00,NNE,29,8.0,17.0,32,0.00,,,0.00,,2013-04-18 01:52:00,
2013-04-17 18:02:00,32.0,6.0,-100.00,NNE,29,8.0,17.0,32,0.00,,,0.00,,2013-04-18 02:02:00,
2013-04-17 18:12:00,32.0,6.0,-100.00,NNE,29,8.0,17.0,32,0.00,,,0.00,,2013-04-18 02:12:00,
2013-04-17 18:32:00,32.0,7.0,-100.00,NNE,31,7.0,17.0,34,0.00,,,0.00,,2013-04-18 02:32:00,
2013-04-17 18:42:00,32.0,7.0,-100.00,NNE,31,7.0,17.0,34,0.00,,,0.00,,2013-04-18 02:42:00,
2013-04-17 18:52:00,32.0,7.0,-100.00,NNE,31,7.0,17.0,34,0.00,,,0.00,,2013-04-18 02:52:00,
2013-04-17 19:02:00,32.0,7.0,-100.00,NNE,31,7.0,17.0,34,0.00,,,0.00,,2013-04-18 03:02:00,
2013-04-17 19:12:00,32.0,7.0,-100.00,NNE,31,7.0,17.0,34,0.00,,,0.00,,2013-04-18 03:12:00,
2013-04-17 19:43:00,30.0,5.0,-100.00,NE,42,4.0,15.0,34,0.00,,,0.00,,2013-04-18 03:43:00,
2013-04-17 19:53:00,30.0,5.0,-100.00,NE,42,4.0,15.0,34,0.00,,,0.00,,2013-04-18 03:53:00,
2013-04-17 20:03:00,30.0,5.0,-100.00,NE,42,4.0,15.0,34,0.00,,,0.00,,2013-04-18 04:03:00,
2013-04-17 20:13:00,30.0,5.0,-100.00,NE,42,4.0,15.0,34,0.00,,,0.00,,2013-04-18 04:13:00,
2013-04-17 20:33:00,29.0,7.0,-100.00,NE,42,3.0,15.0,38,0.00,,,0.00,,2013-04-18 04:33:00,
2013-04-17 20:43:00,29.0,7.0,-100.00,NE,42,3.0,15.0,38,0.00,,,0.00,,2013-04-18 04:43:00,
2013-04-17 20:53:00,29.0,7.0,-100.00,NE,42,3.0,15.0,38,0.00,,,0.00,,2013-04-18 04:53:00,
2013-04-17 21:02:00,29.0,7.0,-100.00,NE,42,3.0,15.0,38,0.00,,,0.00,,2013-04-18 05:02:00,
2013-04-17 21:12:00,29.0,7.0,-100.00,NE,42,3.0,15.0,38,0.00,,,0.00,,2013-04-18 05:12:00,
2013-04-17 21:42:00,26.0,4.0,-100.00,North,353,1.0,12.0,38,0.00,,,0.00,,2013-04-18 05:42:00,
2013-04-17 21:52:00,26.0,4.0,-100.00,North,353,1.0,12.0,38,0.00,,,0.00,,2013-04-18 05:52:00,
2013-04-17 22:02:00,26.0,4.0,-100.00,North,353,1.0,12.0,38,0.00,,,0.00,,2013-04-18 06:02:00,
2013-04-17 22:12:00,26.0,4.0,-100.00,North,353,1.0,12.0,38,0.00,,,0.00,,2013-04-18 06:12:00,
2013-04-17 22:32:00,20.0,3.0,-100.00,NNW,337,0.0,7.0,46,0.00,,,0.00,,2013-04-18 06:32:00,
2013-04-17 22:42:00,20.0,3.0,-100.00,NNW,337,0.0,7.0,46,0.00,,,0.00,,2013-04-18 06:42:00,
2013-04-17 22:52:00,20.0,3.0,-100.00,NNW,337,0.0,7.0,46,0.00,,,0.00,,2013-04-18 06:52:00,
2013-04-17 23:02:00,20.0,3.0,-100.00,NNW,337,0.0,7.0,46,0.00,,,0.00,,2013-04-18 07:02:00,
2013-04-17 23:11:00,20.0,3.0,-100.00,NNW,337,0.0,7.0,46,0.00,,,0.00,,2013-04-18 07:11:00,
2013-04-17 23:42:00,15.0,5.0,-100.00,NNW,348,1.0,4.0,63,0.00,,,0.00,,2013-04-18 07:42:00,